createdAt,value
2023-02-15T00:01:41.055Z,6.60
2023-02-15T00:04:09.142Z,6.70
2023-02-15T00:06:36.384Z,6.70
2023-02-15T00:09:03.935Z,6.70
2023-02-15T00:11:49.694Z,6.80
2023-02-15T00:14:22.131Z,6.80
2023-02-15T00:16:50.475Z,6.80
2023-02-15T00:19:19.710Z,8.30
2023-02-15T00:21:47.011Z,6.80
2023-02-15T00:24:15.722Z,6.80
2023-02-15T00:26:43.885Z,6.80
2023-02-15T00:29:11.936Z,6.80
2023-02-15T00:31:38.903Z,6.70
2023-02-15T00:34:14.478Z,6.70
2023-02-15T00:36:41.212Z,6.70
2023-02-15T00:39:08.038Z,6.80
2023-02-15T00:41:34.701Z,6.90
2023-02-15T00:44:01.681Z,6.90
2023-02-15T00:46:28.411Z,6.80
2023-02-15T00:48:55.008Z,6.80
2023-02-15T00:51:21.616Z,6.70
2023-02-15T00:53:48.985Z,6.70
2023-02-15T00:56:15.989Z,6.70
2023-02-15T00:58:42.996Z,6.70
2023-02-15T01:01:14.222Z,6.80
2023-02-15T01:03:42.598Z,6.80
2023-02-15T01:06:10.389Z,6.80
2023-02-15T01:08:37.484Z,6.70
2023-02-15T01:11:13.009Z,6.80
2023-02-15T01:13:40.321Z,6.80
2023-02-15T01:16:07.708Z,6.80
2023-02-15T01:18:36.524Z,6.80
2023-02-15T01:21:14.843Z,6.80
2023-02-15T01:23:42.983Z,6.80
2023-02-15T01:26:11.050Z,6.80
2023-02-15T01:28:38.400Z,6.80
2023-02-15T01:31:14.528Z,6.80
2023-02-15T01:33:41.238Z,6.80
2023-02-15T01:36:07.893Z,6.80
2023-02-15T01:38:35.994Z,6.80
2023-02-15T01:41:21.407Z,6.80
2023-02-15T01:44:00.144Z,6.90
2023-02-15T01:46:45.207Z,6.80
2023-02-15T01:49:19.879Z,6.80
2023-02-15T01:51:49.740Z,6.80
2023-02-15T01:54:32.696Z,6.70
2023-02-15T01:57:04.366Z,6.70
2023-02-15T01:59:34.636Z,6.80
2023-02-15T02:02:03.230Z,6.80
2023-02-15T02:04:42.206Z,6.70
2023-02-15T02:07:10.607Z,6.80
2023-02-15T02:09:37.796Z,6.80
2023-02-15T02:12:04.833Z,6.80
2023-02-15T02:14:31.652Z,6.80
2023-02-15T02:17:16.303Z,6.80
2023-02-15T02:20:13.190Z,6.80
2023-02-15T02:22:54.482Z,6.80
2023-02-15T02:25:29.741Z,6.80
2023-02-15T02:28:29.297Z,6.80
2023-02-15T02:31:01.792Z,6.70
2023-02-15T02:33:43.433Z,6.70
2023-02-15T02:36:42.885Z,6.70
2023-02-15T02:39:35.087Z,6.80
2023-02-15T02:42:23.895Z,6.80
2023-02-15T02:45:28.370Z,7.60
2023-02-15T02:48:04.685Z,6.80
2023-02-15T02:50:31.634Z,6.70
2023-02-15T02:52:59.831Z,6.70
2023-02-15T02:55:41.868Z,6.70
2023-02-15T02:58:25.059Z,6.70
2023-02-15T03:01:15.349Z,6.60
2023-02-15T03:03:43.874Z,6.60
2023-02-15T03:06:18.893Z,6.60
2023-02-15T03:09:02.242Z,6.70
2023-02-15T03:11:29.084Z,6.70
2023-02-15T03:13:55.717Z,6.80
2023-02-15T03:16:28.935Z,6.80
2023-02-15T03:19:09.030Z,6.80
2023-02-15T03:21:50.448Z,6.70
2023-02-15T03:24:23.079Z,6.70
2023-02-15T03:26:55.073Z,6.70
2023-02-15T03:29:24.823Z,6.70
2023-02-15T03:32:00.340Z,6.70
2023-02-15T03:34:27.855Z,6.70
2023-02-15T03:37:00.672Z,6.70
2023-02-15T03:39:47.344Z,6.70
2023-02-15T03:42:22.880Z,6.80
2023-02-15T03:44:59.632Z,6.80
2023-02-15T03:47:39.786Z,6.70
2023-02-15T03:50:39.725Z,6.70
2023-02-15T03:53:10.209Z,6.70
2023-02-15T03:55:37.178Z,6.20
2023-02-15T03:58:23.171Z,7.20
2023-02-15T04:01:47.594Z,6.70
2023-02-15T04:04:21.206Z,6.70
2023-02-15T04:06:48.155Z,6.70
2023-02-15T04:09:33.692Z,6.90
2023-02-15T04:12:00.388Z,6.70
2023-02-15T04:14:45.832Z,6.60
2023-02-15T04:17:12.517Z,6.60
2023-02-15T04:19:57.638Z,6.60
2023-02-15T04:22:42.972Z,6.60
2023-02-15T04:25:15.803Z,6.60
2023-02-15T04:27:45.094Z,6.50
2023-02-15T04:30:13.295Z,6.50
2023-02-15T04:32:39.958Z,6.50
2023-02-15T04:35:07.557Z,8.00
2023-02-15T04:37:34.705Z,6.60
2023-02-15T04:40:01.340Z,6.50
2023-02-15T04:42:28.364Z,6.50
2023-02-15T04:44:55.445Z,6.40
2023-02-15T04:47:22.444Z,6.30
2023-02-15T04:49:49.276Z,6.30
2023-02-15T04:52:16.189Z,6.30
2023-02-15T04:54:42.805Z,6.30
2023-02-15T04:57:09.547Z,6.30
2023-02-15T04:59:36.233Z,6.20
2023-02-15T05:02:03.218Z,6.20
2023-02-15T05:04:30.074Z,6.20
2023-02-15T05:06:56.706Z,6.20
2023-02-15T05:09:23.371Z,6.20
2023-02-15T05:11:50.055Z,6.30
2023-02-15T05:14:16.702Z,6.20
2023-02-15T05:16:43.435Z,6.10
2023-02-15T05:19:10.059Z,6.20
2023-02-15T05:21:36.795Z,6.30
2023-02-15T05:24:23.597Z,6.30
2023-02-15T05:27:08.822Z,6.30
2023-02-15T05:29:35.595Z,6.20
2023-02-15T05:32:03.404Z,6.20
2023-02-15T05:34:30.103Z,6.20
2023-02-15T05:36:56.710Z,6.20
2023-02-15T05:39:23.356Z,6.20
2023-02-15T05:41:49.983Z,6.30
2023-02-15T05:44:16.631Z,6.30
2023-02-15T05:46:43.367Z,6.30
2023-02-15T05:49:09.986Z,6.20
2023-02-15T05:51:36.582Z,6.20
2023-02-15T05:54:03.200Z,6.10
2023-02-15T05:56:29.801Z,6.10
2023-02-15T05:58:56.448Z,6.10
2023-02-15T06:01:23.890Z,6.10
2023-02-15T06:03:50.651Z,6.10
2023-02-15T06:06:17.543Z,6.20
2023-02-15T06:08:44.468Z,6.00
2023-02-15T06:11:11.774Z,6.00
2023-02-15T06:13:39.042Z,6.10
2023-02-15T06:16:06.893Z,5.90
2023-02-15T06:18:33.590Z,5.90
2023-02-15T06:21:00.231Z,5.90
2023-02-15T06:23:26.902Z,5.90
2023-02-15T06:25:53.493Z,6.00
2023-02-15T06:28:20.099Z,6.00
2023-02-15T06:30:47.555Z,6.00
2023-02-15T06:33:14.229Z,6.10
2023-02-15T06:35:40.890Z,6.10
2023-02-15T06:38:07.462Z,6.10
2023-02-15T06:40:34.078Z,6.10
2023-02-15T06:43:00.685Z,6.10
2023-02-15T06:45:27.310Z,6.10
2023-02-15T06:47:53.914Z,6.10
2023-02-15T06:50:20.871Z,6.40
2023-02-15T06:52:47.489Z,6.50
2023-02-15T06:55:14.106Z,6.80
2023-02-15T06:57:41.089Z,7.40
2023-02-15T07:00:09.080Z,7.80
2023-02-15T07:02:35.771Z,8.40
2023-02-15T07:05:02.510Z,8.00
2023-02-15T07:07:29.272Z,7.80
2023-02-15T07:09:55.913Z,7.50
2023-02-15T07:12:41.334Z,7.10
2023-02-15T07:15:16.464Z,6.80
2023-02-15T07:17:44.354Z,6.50
2023-02-15T07:20:22.546Z,6.30
2023-02-15T07:22:50.033Z,6.30
2023-02-15T07:25:17.405Z,6.20
2023-02-15T07:27:45.660Z,6.20
2023-02-15T07:30:15.304Z,6.10
2023-02-15T07:33:04.735Z,6.10
2023-02-15T07:35:31.576Z,6.50
2023-02-15T07:37:58.166Z,5.90
2023-02-15T07:40:24.831Z,5.80
2023-02-15T07:42:55.834Z,5.70
2023-02-15T07:45:22.963Z,5.80
2023-02-15T07:47:49.685Z,5.80
2023-02-15T07:50:16.435Z,5.90
2023-02-15T07:52:43.082Z,5.90
2023-02-15T07:55:09.879Z,5.90
2023-02-15T07:57:36.547Z,5.90
2023-02-15T08:00:04.359Z,5.90
2023-02-15T08:02:31.230Z,5.90
2023-02-15T08:04:57.882Z,5.80
2023-02-15T08:07:24.522Z,5.90
2023-02-15T08:09:51.104Z,5.90
2023-02-15T08:12:17.701Z,6.00
2023-02-15T08:14:44.296Z,6.00
2023-02-15T08:17:10.957Z,6.00
2023-02-15T08:19:37.583Z,6.00
2023-02-15T08:22:08.923Z,6.00
2023-02-15T08:24:40.207Z,6.10
2023-02-15T08:27:09.264Z,6.00
2023-02-15T08:29:38.350Z,6.10
2023-02-15T08:32:10.592Z,5.90
2023-02-15T08:38:31.635Z,5.70
2023-02-15T08:41:20.090Z,5.70
2023-02-15T08:43:49.576Z,5.70
2023-02-15T08:46:17.242Z,6.80
2023-02-15T08:48:45.007Z,5.60
2023-02-15T08:51:17.807Z,5.60
2023-02-15T08:53:46.998Z,5.60
2023-02-15T08:56:13.671Z,5.80
2023-02-15T08:58:40.292Z,5.70
2023-02-15T09:01:27.553Z,5.70
2023-02-15T09:04:00.426Z,5.70
2023-02-15T09:06:27.922Z,5.70
2023-02-15T09:08:55.508Z,5.80
2023-02-15T09:11:30.477Z,5.70
2023-02-15T09:14:09.983Z,5.50
2023-02-15T09:16:38.855Z,5.40
2023-02-15T09:19:06.318Z,5.50
2023-02-15T09:21:34.967Z,3.90
2023-02-15T09:24:08.563Z,5.80
2023-02-15T09:26:37.723Z,5.80
2023-02-15T09:29:04.842Z,6.00
2023-02-15T09:31:34.756Z,5.90
2023-02-15T09:34:02.626Z,5.80
2023-02-15T09:36:34.697Z,5.80
2023-02-15T09:39:08.620Z,7.70
2023-02-15T09:41:50.367Z,5.90
2023-02-15T09:44:48.329Z,6.00
2023-02-15T09:47:33.037Z,6.00
2023-02-15T09:50:32.427Z,5.90
2023-02-15T09:53:28.505Z,5.90
2023-02-15T09:56:06.173Z,6.00
2023-02-15T09:59:03.614Z,6.10
2023-02-15T10:01:45.603Z,6.00
2023-02-15T10:04:41.860Z,6.10
2023-02-15T10:07:43.197Z,6.10
2023-02-15T10:10:26.257Z,6.20
2023-02-15T10:13:07.181Z,6.20
2023-02-15T10:15:58.192Z,6.20
2023-02-15T10:18:27.868Z,6.30
2023-02-15T10:21:10.810Z,6.30
2023-02-15T10:23:40.489Z,6.40
2023-02-15T10:26:23.649Z,6.50
2023-02-15T10:28:54.290Z,6.50
2023-02-15T10:31:33.184Z,6.50
2023-02-15T10:34:13.899Z,6.50
2023-02-15T10:36:51.263Z,7.70
2023-02-15T10:39:44.703Z,6.60
2023-02-15T10:42:47.067Z,6.70
2023-02-15T10:45:13.735Z,6.50
2023-02-15T10:47:49.792Z,6.70
2023-02-15T10:50:26.019Z,6.70
2023-02-15T10:52:55.534Z,6.30
2023-02-15T10:55:45.849Z,6.40
2023-02-15T10:58:25.850Z,6.50
2023-02-15T11:01:05.610Z,6.50
2023-02-15T11:03:43.985Z,6.50
2023-02-15T11:06:17.677Z,6.70
2023-02-15T11:08:48.835Z,6.70
2023-02-15T11:11:26.328Z,6.70
2023-02-15T11:13:58.829Z,6.90
2023-02-15T11:16:33.625Z,7.00
2023-02-15T11:19:11.670Z,7.10
2023-02-15T11:21:43.838Z,7.30
2023-02-15T11:24:17.003Z,7.30
2023-02-15T11:26:47.511Z,7.40
2023-02-15T11:29:29.273Z,7.50
2023-02-15T11:32:02.795Z,8.70
2023-02-15T11:34:39.282Z,7.80
2023-02-15T11:37:13.251Z,7.60
2023-02-15T11:39:40.999Z,7.40
2023-02-15T11:42:21.444Z,7.50
2023-02-15T11:45:20.673Z,7.60
2023-02-15T11:47:47.284Z,7.70
2023-02-15T11:50:23.333Z,7.70
2023-02-15T11:52:52.786Z,7.70
2023-02-15T11:55:23.474Z,7.60
2023-02-15T11:58:08.057Z,7.60
2023-02-15T12:00:39.189Z,7.50
2023-02-15T12:03:15.253Z,7.60
2023-02-15T12:05:45.471Z,7.60
2023-02-15T12:08:20.214Z,7.70
2023-02-15T12:11:06.788Z,7.60
2023-02-15T12:13:33.506Z,7.60
2023-02-15T12:16:11.338Z,7.70
2023-02-15T12:18:41.286Z,7.80
2023-02-15T12:21:14.414Z,7.90
2023-02-15T12:23:43.407Z,7.80
2023-02-15T12:26:10.453Z,7.70
2023-02-15T12:28:42.000Z,7.20
2023-02-15T12:31:25.084Z,7.80
2023-02-15T12:33:55.062Z,7.90
2023-02-15T12:36:32.932Z,7.90
2023-02-15T12:39:05.726Z,8.00
2023-02-15T12:41:32.957Z,8.10
2023-02-15T12:44:30.764Z,8.10
2023-02-15T12:47:06.657Z,8.20
2023-02-15T12:49:38.075Z,8.30
2023-02-15T12:52:21.095Z,8.40
2023-02-15T12:54:48.486Z,8.50
2023-02-15T12:57:23.208Z,8.50
2023-02-15T13:00:18.653Z,8.50
2023-02-15T13:02:52.335Z,8.60
2023-02-15T13:05:39.354Z,8.70
2023-02-15T13:08:13.442Z,8.80
2023-02-15T13:10:59.016Z,8.80
2023-02-15T13:13:31.819Z,9.00
2023-02-15T13:16:12.124Z,9.00
2023-02-15T13:18:42.783Z,8.90
2023-02-15T13:21:21.281Z,8.90
2023-02-15T13:23:58.505Z,8.90
2023-02-15T13:26:30.403Z,8.90
2023-02-15T13:29:09.640Z,8.90
2023-02-15T13:31:37.304Z,9.00
2023-02-15T13:34:11.327Z,9.00
2023-02-15T13:36:50.417Z,8.80
2023-02-15T13:39:20.121Z,8.90
2023-02-15T13:41:57.418Z,9.00
2023-02-15T13:44:52.077Z,9.00
2023-02-15T13:47:33.336Z,9.00
2023-02-15T13:50:30.068Z,9.10
2023-02-15T13:53:08.204Z,9.10
2023-02-15T13:55:50.644Z,9.10
2023-02-15T13:58:29.240Z,9.20
2023-02-15T14:01:33.842Z,9.30
2023-02-15T14:04:23.439Z,9.30
2023-02-15T14:07:22.767Z,9.30
2023-02-15T14:10:13.303Z,9.30
2023-02-15T14:12:59.915Z,9.30
2023-02-15T14:15:33.297Z,9.30
2023-02-15T14:18:14.537Z,9.30
2023-02-15T14:20:57.549Z,9.30
2023-02-15T14:23:39.642Z,9.10
2023-02-15T14:26:46.218Z,9.20
2023-02-15T14:29:39.616Z,9.20
2023-02-15T14:32:12.570Z,9.30
2023-02-15T14:34:57.073Z,9.30
2023-02-15T14:37:55.288Z,9.40
2023-02-15T14:41:02.513Z,9.40
2023-02-15T14:44:01.972Z,9.50
2023-02-15T14:46:33.141Z,9.50
2023-02-15T14:49:08.118Z,9.50
2023-02-15T14:51:44.042Z,9.50
2023-02-15T14:54:25.813Z,9.50
2023-02-15T14:57:01.425Z,9.60
2023-02-15T14:59:53.266Z,9.70
2023-02-15T15:02:31.532Z,9.60
2023-02-15T15:05:13.082Z,9.60
2023-02-15T15:07:48.495Z,9.60
2023-02-15T15:10:18.043Z,9.60
2023-02-15T15:12:53.396Z,9.60
2023-02-15T15:15:29.449Z,9.60
2023-02-15T15:17:59.251Z,11.30
2023-02-15T15:20:45.741Z,10.10
2023-02-15T15:23:15.601Z,10.40
2023-02-15T15:26:18.154Z,10.50
2023-02-15T15:28:44.713Z,10.50
2023-02-15T15:31:26.124Z,10.20
2023-02-15T15:34:11.364Z,10.00
2023-02-15T15:36:55.024Z,9.80
2023-02-15T15:39:40.633Z,9.80
2023-02-15T15:42:21.923Z,9.60
2023-02-15T15:45:25.045Z,9.40
2023-02-15T15:48:12.529Z,9.30
2023-02-15T15:50:43.149Z,9.20
2023-02-15T15:53:22.063Z,9.20
2023-02-15T15:55:51.535Z,9.20
2023-02-15T15:58:20.264Z,9.10
2023-02-15T16:01:00.319Z,9.00
2023-02-15T16:03:29.051Z,9.00
2023-02-15T16:05:57.142Z,9.00
2023-02-15T16:08:35.822Z,8.90
2023-02-15T16:11:14.707Z,8.90
2023-02-15T16:13:45.046Z,8.80
2023-02-15T16:16:14.695Z,8.90
2023-02-15T16:18:43.304Z,8.70
2023-02-15T16:21:19.190Z,8.60
2023-02-15T16:24:15.168Z,8.60
2023-02-15T16:27:23.838Z,8.60
2023-02-15T16:29:50.718Z,8.50
2023-02-15T16:32:21.325Z,8.40
2023-02-15T16:34:58.365Z,8.30
2023-02-15T16:37:32.973Z,8.30
2023-02-15T16:39:59.761Z,8.30
2023-02-15T16:42:27.023Z,8.20
2023-02-15T16:45:09.275Z,8.20
2023-02-15T16:47:43.754Z,8.10
2023-02-15T16:50:20.702Z,8.10
2023-02-15T16:52:47.639Z,8.10
2023-02-15T16:55:23.853Z,8.20
2023-02-15T16:57:51.502Z,8.10
2023-02-15T17:00:21.801Z,8.10
2023-02-15T17:02:58.764Z,8.10
2023-02-15T17:05:40.906Z,8.00
2023-02-15T17:08:20.462Z,8.00
2023-02-15T17:11:05.896Z,8.00
2023-02-15T17:13:32.722Z,7.90
2023-02-15T17:15:59.291Z,7.90
2023-02-15T17:18:28.905Z,7.90
2023-02-15T17:21:00.864Z,7.90
2023-02-15T17:23:37.706Z,7.90
2023-02-15T17:26:16.418Z,7.80
2023-02-15T17:29:23.335Z,7.80
2023-02-15T17:31:52.699Z,7.60
2023-02-15T17:34:58.149Z,7.60
2023-02-15T17:37:26.697Z,7.60
2023-02-15T17:39:53.863Z,7.60
2023-02-15T17:42:20.487Z,7.50
2023-02-15T17:44:47.239Z,7.60
2023-02-15T17:47:21.132Z,7.50
2023-02-15T17:49:50.100Z,7.60
2023-02-15T17:52:18.284Z,7.60
2023-02-15T17:55:04.290Z,7.60
2023-02-15T17:57:31.366Z,7.50
2023-02-15T18:00:16.960Z,7.60
2023-02-15T18:03:02.981Z,7.60
2023-02-15T18:05:48.438Z,7.50
2023-02-15T18:08:36.460Z,7.50
2023-02-15T18:11:21.729Z,7.50
2023-02-15T18:13:48.629Z,7.50
2023-02-15T18:16:26.667Z,7.50
2023-02-15T18:18:53.570Z,7.40
2023-02-15T18:21:20.403Z,7.30
2023-02-15T18:23:47.005Z,7.30
2023-02-15T18:26:22.245Z,7.30
2023-02-15T18:28:49.647Z,7.30
2023-02-15T18:31:17.224Z,7.30
2023-02-15T18:33:56.358Z,8.50
2023-02-15T18:36:43.900Z,7.20
2023-02-15T18:39:34.594Z,7.10
2023-02-15T18:42:01.386Z,7.20
2023-02-15T18:44:28.048Z,7.20
2023-02-15T18:46:54.795Z,8.30
2023-02-15T18:49:21.453Z,7.00
2023-02-15T18:51:48.237Z,7.10
2023-02-15T18:54:21.528Z,7.00
2023-02-15T18:56:58.426Z,7.00
2023-02-15T18:59:26.933Z,7.00
2023-02-15T19:01:54.145Z,7.00
2023-02-15T19:04:21.070Z,7.00
2023-02-15T19:06:49.675Z,6.90
2023-02-15T19:09:20.730Z,6.90
2023-02-15T19:11:53.955Z,6.80
2023-02-15T19:14:28.309Z,6.90
2023-02-15T19:16:56.386Z,6.90
2023-02-15T19:19:23.567Z,6.90
2023-02-15T19:21:50.890Z,7.00
2023-02-15T19:24:25.365Z,6.90
2023-02-15T19:26:52.712Z,6.90
2023-02-15T19:29:26.210Z,7.00
2023-02-15T19:31:53.342Z,7.00
2023-02-15T19:34:20.016Z,6.90
2023-02-15T19:36:54.934Z,6.90
2023-02-15T19:39:25.581Z,6.90
2023-02-15T19:41:52.558Z,6.90
2023-02-15T19:44:19.473Z,6.80
2023-02-15T19:46:46.328Z,6.80
2023-02-15T19:49:13.167Z,6.80
2023-02-15T19:51:40.459Z,6.80
2023-02-15T19:54:28.337Z,6.80
2023-02-15T19:56:55.571Z,6.70
2023-02-15T19:59:25.121Z,6.70
2023-02-15T20:01:52.225Z,6.70
2023-02-15T20:04:19.526Z,6.80
2023-02-15T20:06:48.662Z,6.70
2023-02-15T20:09:21.439Z,6.70
2023-02-15T20:11:47.999Z,6.70
2023-02-15T20:14:15.088Z,6.70
2023-02-15T20:16:41.981Z,6.70
2023-02-15T20:19:09.118Z,6.70
2023-02-15T20:21:36.294Z,5.80
2023-02-15T20:24:04.004Z,6.60
2023-02-15T20:26:32.467Z,6.60
2023-02-15T20:29:00.113Z,6.60
2023-02-15T20:31:26.929Z,6.60
2023-02-15T20:33:53.914Z,6.60
2023-02-15T20:36:22.717Z,6.60
2023-02-15T20:38:49.464Z,6.50
2023-02-15T20:41:36.274Z,6.60
2023-02-15T20:44:24.671Z,6.40
2023-02-15T20:46:56.733Z,6.40
2023-02-15T20:49:25.518Z,7.30
2023-02-15T20:51:53.853Z,6.40
2023-02-15T20:54:26.201Z,6.50
2023-02-15T20:56:54.322Z,6.50
2023-02-15T20:59:27.562Z,6.50
2023-02-15T21:02:14.246Z,6.40
2023-02-15T21:04:41.440Z,6.40
2023-02-15T21:07:13.792Z,6.40
2023-02-15T21:09:41.717Z,6.40
2023-02-15T21:12:19.444Z,6.50
2023-02-15T21:14:46.348Z,6.50
2023-02-15T21:17:14.249Z,6.50
2023-02-15T21:19:41.565Z,6.50
2023-02-15T21:22:13.574Z,6.40
2023-02-15T21:24:46.629Z,6.40
2023-02-15T21:27:13.539Z,6.40
2023-02-15T21:29:40.161Z,6.40
2023-02-15T21:32:06.908Z,6.30
2023-02-15T21:34:33.623Z,6.30
2023-02-15T21:37:00.322Z,6.30
2023-02-15T21:39:30.107Z,6.30
2023-02-15T21:42:15.516Z,6.20
2023-02-15T21:45:00.912Z,5.10
2023-02-15T21:47:48.897Z,6.30
2023-02-15T21:50:40.261Z,6.40
2023-02-15T21:53:09.663Z,6.40
2023-02-15T21:55:36.552Z,6.40
2023-02-15T21:58:03.814Z,6.70
2023-02-15T22:00:31.160Z,6.60
2023-02-15T22:03:00.790Z,6.50
2023-02-15T22:05:31.252Z,6.40
2023-02-15T22:07:58.245Z,6.30
2023-02-15T22:10:30.992Z,6.30
2023-02-15T22:13:00.469Z,6.30
2023-02-15T22:15:32.883Z,6.20
2023-02-15T22:17:59.519Z,6.30
2023-02-15T22:20:26.336Z,6.20
2023-02-15T22:22:53.479Z,6.20
2023-02-15T22:25:23.604Z,6.10
2023-02-15T22:27:52.857Z,6.10
2023-02-15T22:30:29.281Z,6.10
2023-02-15T22:32:57.610Z,6.10
2023-02-15T22:35:33.376Z,6.00
2023-02-15T22:38:00.963Z,6.10
2023-02-15T22:40:31.145Z,6.10
2023-02-15T22:43:00.650Z,6.00
2023-02-15T22:45:28.253Z,6.00
2023-02-15T22:47:58.439Z,6.00
2023-02-15T22:50:28.076Z,6.00
2023-02-15T22:52:54.904Z,5.90
2023-02-15T22:55:24.391Z,5.90
2023-02-15T22:57:54.567Z,6.00
2023-02-15T23:00:31.081Z,6.00
2023-02-15T23:02:57.882Z,5.90
2023-02-15T23:05:27.793Z,6.10
2023-02-15T23:07:55.014Z,5.90
2023-02-15T23:10:24.589Z,6.10
2023-02-15T23:13:17.822Z,5.90
2023-02-15T23:15:48.654Z,5.90
2023-02-15T23:18:19.525Z,5.90
2023-02-15T23:20:52.361Z,5.90
2023-02-15T23:23:24.480Z,5.80
2023-02-15T23:25:51.213Z,5.80
2023-02-15T23:28:37.579Z,5.80
2023-02-15T23:31:16.077Z,5.80
2023-02-15T23:33:42.956Z,6.10
2023-02-15T23:36:25.760Z,5.80
2023-02-15T23:38:54.251Z,5.80
2023-02-15T23:41:25.727Z,5.80
2023-02-15T23:44:00.946Z,5.70
2023-02-15T23:46:41.365Z,5.70
2023-02-15T23:49:15.297Z,5.70
2023-02-15T23:51:44.222Z,5.70
2023-02-15T23:54:11.521Z,5.70
2023-02-15T23:56:38.874Z,5.70
2023-02-15T23:59:06.111Z,5.70
